sensor_id;sensor_type;location;lat;lon;timestamp;P1;durP1;ratioP1;P2;durP2;ratioP2
64674;SDS011;51090;51.512;11.332;2023-05-10T00:01:13;5.35;;;3.55;;
64674;SDS011;51090;51.512;11.332;2023-05-10T00:03:39;6.38;;;3.22;;
64674;SDS011;51090;51.512;11.332;2023-05-10T00:06:05;6.20;;;3.35;;
64674;SDS011;51090;51.512;11.332;2023-05-10T00:08:31;5.80;;;3.85;;
64674;SDS011;51090;51.512;11.332;2023-05-10T00:10:57;7.80;;;3.97;;
64674;SDS011;51090;51.512;11.332;2023-05-10T00:13:23;5.43;;;3.38;;
64674;SDS011;51090;51.512;11.332;2023-05-10T00:15:49;7.65;;;3.20;;
64674;SDS011;51090;51.512;11.332;2023-05-10T00:18:15;6.78;;;3.67;;
64674;SDS011;51090;51.512;11.332;2023-05-10T00:20:41;7.13;;;3.88;;
64674;SDS011;51090;51.512;11.332;2023-05-10T00:23:07;5.70;;;3.13;;
64674;SDS011;51090;51.512;11.332;2023-05-10T00:25:33;5.97;;;3.78;;
64674;SDS011;51090;51.512;11.332;2023-05-10T00:27:59;6.55;;;3.97;;
64674;SDS011;51090;51.512;11.332;2023-05-10T00:30:26;7.40;;;3.50;;
64674;SDS011;51090;51.512;11.332;2023-05-10T00:32:52;6.70;;;3.22;;
64674;SDS011;51090;51.512;11.332;2023-05-10T00:35:18;5.90;;;3.60;;
64674;SDS011;51090;51.512;11.332;2023-05-10T00:37:44;5.32;;;3.53;;
64674;SDS011;51090;51.512;11.332;2023-05-10T00:40:11;6.38;;;3.78;;
64674;SDS011;51090;51.512;11.332;2023-05-10T00:42:37;6.43;;;3.58;;
64674;SDS011;51090;51.512;11.332;2023-05-10T00:45:03;5.80;;;3.35;;
64674;SDS011;51090;51.512;11.332;2023-05-10T00:47:30;6.35;;;3.28;;
64674;SDS011;51090;51.512;11.332;2023-05-10T00:49:56;6.95;;;3.45;;
64674;SDS011;51090;51.512;11.332;2023-05-10T00:52:22;6.10;;;3.55;;
64674;SDS011;51090;51.512;11.332;2023-05-10T00:54:52;5.72;;;3.40;;
64674;SDS011;51090;51.512;11.332;2023-05-10T00:57:19;6.13;;;3.53;;
64674;SDS011;51090;51.512;11.332;2023-05-10T00:59:45;6.15;;;3.55;;
64674;SDS011;51090;51.512;11.332;2023-05-10T01:02:12;5.55;;;3.67;;
64674;SDS011;51090;51.512;11.332;2023-05-10T01:04:38;7.55;;;3.60;;
64674;SDS011;51090;51.512;11.332;2023-05-10T01:07:04;7.13;;;3.67;;
64674;SDS011;51090;51.512;11.332;2023-05-10T01:09:30;5.35;;;3.63;;
64674;SDS011;51090;51.512;11.332;2023-05-10T01:11:56;6.05;;;3.10;;
64674;SDS011;51090;51.512;11.332;2023-05-10T01:14:23;6.90;;;3.83;;
64674;SDS011;51090;51.512;11.332;2023-05-10T01:16:50;6.15;;;3.40;;
64674;SDS011;51090;51.512;11.332;2023-05-10T01:22:02;7.45;;;3.17;;
64674;SDS011;51090;51.512;11.332;2023-05-10T01:24:48;6.93;;;2.95;;
64674;SDS011;51090;51.512;11.332;2023-05-10T01:28:07;5.93;;;3.17;;
64674;SDS011;51090;51.512;11.332;2023-05-10T01:34:23;6.60;;;3.17;;
64674;SDS011;51090;51.512;11.332;2023-05-10T01:37:04;6.60;;;3.17;;
64674;SDS011;51090;51.512;11.332;2023-05-10T01:42:36;5.50;;;2.90;;
64674;SDS011;51090;51.512;11.332;2023-05-10T01:45:19;7.00;;;3.22;;
64674;SDS011;51090;51.512;11.332;2023-05-10T01:48:02;6.45;;;3.30;;
64674;SDS011;51090;51.512;11.332;2023-05-10T01:50:32;7.28;;;3.45;;
64674;SDS011;51090;51.512;11.332;2023-05-10T01:53:01;8.82;;;3.75;;
64674;SDS011;51090;51.512;11.332;2023-05-10T01:55:31;6.55;;;3.60;;
64674;SDS011;51090;51.512;11.332;2023-05-10T01:58:06;6.30;;;2.85;;
64674;SDS011;51090;51.512;11.332;2023-05-10T02:01:10;7.53;;;3.47;;
64674;SDS011;51090;51.512;11.332;2023-05-10T02:03:37;7.45;;;3.58;;
64674;SDS011;51090;51.512;11.332;2023-05-10T02:06:05;7.22;;;3.63;;
64674;SDS011;51090;51.512;11.332;2023-05-10T02:08:32;6.40;;;3.25;;
64674;SDS011;51090;51.512;11.332;2023-05-10T02:11:02;8.85;;;3.58;;
64674;SDS011;51090;51.512;11.332;2023-05-10T02:13:29;7.20;;;3.25;;
64674;SDS011;51090;51.512;11.332;2023-05-10T02:15:59;10.32;;;4.30;;
64674;SDS011;51090;51.512;11.332;2023-05-10T02:18:26;7.05;;;3.50;;
64674;SDS011;51090;51.512;11.332;2023-05-10T02:20:52;6.93;;;3.35;;
64674;SDS011;51090;51.512;11.332;2023-05-10T02:23:19;9.73;;;3.85;;
64674;SDS011;51090;51.512;11.332;2023-05-10T02:25:46;6.90;;;4.32;;
64674;SDS011;51090;51.512;11.332;2023-05-10T02:28:14;7.53;;;3.85;;
64674;SDS011;51090;51.512;11.332;2023-05-10T02:30:42;8.52;;;4.43;;
64674;SDS011;51090;51.512;11.332;2023-05-10T02:33:08;6.53;;;3.30;;
64674;SDS011;51090;51.512;11.332;2023-05-10T02:35:35;8.40;;;3.42;;
64674;SDS011;51090;51.512;11.332;2023-05-10T02:38:03;6.50;;;3.58;;
64674;SDS011;51090;51.512;11.332;2023-05-10T02:40:31;9.10;;;3.95;;
64674;SDS011;51090;51.512;11.332;2023-05-10T02:42:58;8.80;;;4.20;;
64674;SDS011;51090;51.512;11.332;2023-05-10T02:45:27;9.40;;;3.85;;
64674;SDS011;51090;51.512;11.332;2023-05-10T02:47:56;5.18;;;3.22;;
64674;SDS011;51090;51.512;11.332;2023-05-10T02:50:22;6.95;;;3.63;;
64674;SDS011;51090;51.512;11.332;2023-05-10T02:52:51;7.18;;;4.07;;
64674;SDS011;51090;51.512;11.332;2023-05-10T02:55:19;7.53;;;3.35;;
64674;SDS011;51090;51.512;11.332;2023-05-10T02:58:00;7.03;;;4.07;;
64674;SDS011;51090;51.512;11.332;2023-05-10T03:00:27;6.03;;;3.33;;
64674;SDS011;51090;51.512;11.332;2023-05-10T03:02:53;6.03;;;3.17;;
64674;SDS011;51090;51.512;11.332;2023-05-10T03:05:20;8.63;;;3.80;;
64674;SDS011;51090;51.512;11.332;2023-05-10T03:07:46;7.05;;;3.67;;
64674;SDS011;51090;51.512;11.332;2023-05-10T03:10:12;7.00;;;3.60;;
64674;SDS011;51090;51.512;11.332;2023-05-10T03:21:01;5.32;;;3.13;;
64674;SDS011;51090;51.512;11.332;2023-05-10T03:26:17;6.25;;;3.67;;
64674;SDS011;51090;51.512;11.332;2023-05-10T03:28:52;5.60;;;3.20;;
64674;SDS011;51090;51.512;11.332;2023-05-10T03:31:19;5.07;;;3.20;;
64674;SDS011;51090;51.512;11.332;2023-05-10T03:33:49;6.45;;;2.90;;
64674;SDS011;51090;51.512;11.332;2023-05-10T03:36:15;5.10;;;3.45;;
64674;SDS011;51090;51.512;11.332;2023-05-10T03:38:41;4.57;;;2.88;;
64674;SDS011;51090;51.512;11.332;2023-05-10T03:41:07;5.93;;;3.05;;
64674;SDS011;51090;51.512;11.332;2023-05-10T03:43:33;5.35;;;3.45;;
64674;SDS011;51090;51.512;11.332;2023-05-10T03:46:01;8.27;;;3.70;;
64674;SDS011;51090;51.512;11.332;2023-05-10T03:48:30;5.97;;;3.25;;
64674;SDS011;51090;51.512;11.332;2023-05-10T03:50:57;6.72;;;3.30;;
64674;SDS011;51090;51.512;11.332;2023-05-10T03:53:23;5.70;;;3.13;;
64674;SDS011;51090;51.512;11.332;2023-05-10T03:55:48;6.53;;;3.42;;
64674;SDS011;51090;51.512;11.332;2023-05-10T03:58:14;5.13;;;3.20;;
64674;SDS011;51090;51.512;11.332;2023-05-10T04:00:40;4.75;;;2.85;;
64674;SDS011;51090;51.512;11.332;2023-05-10T04:03:09;7.78;;;3.22;;
64674;SDS011;51090;51.512;11.332;2023-05-10T04:05:35;4.68;;;2.67;;
64674;SDS011;51090;51.512;11.332;2023-05-10T04:08:01;5.63;;;2.80;;
64674;SDS011;51090;51.512;11.332;2023-05-10T04:10:28;6.40;;;2.85;;
64674;SDS011;51090;51.512;11.332;2023-05-10T04:12:53;10.38;;;3.20;;
64674;SDS011;51090;51.512;11.332;2023-05-10T04:15:19;7.18;;;3.15;;
64674;SDS011;51090;51.512;11.332;2023-05-10T04:17:45;5.07;;;2.83;;
64674;SDS011;51090;51.512;11.332;2023-05-10T04:20:12;5.22;;;3.47;;
64674;SDS011;51090;51.512;11.332;2023-05-10T04:22:38;6.00;;;2.95;;
64674;SDS011;51090;51.512;11.332;2023-05-10T04:25:04;6.60;;;3.53;;
64674;SDS011;51090;51.512;11.332;2023-05-10T04:27:31;5.32;;;3.10;;
64674;SDS011;51090;51.512;11.332;2023-05-10T04:29:56;6.50;;;3.38;;
64674;SDS011;51090;51.512;11.332;2023-05-10T04:32:22;4.63;;;3.15;;
64674;SDS011;51090;51.512;11.332;2023-05-10T04:34:48;4.18;;;2.65;;
64674;SDS011;51090;51.512;11.332;2023-05-10T04:37:16;7.40;;;3.50;;
64674;SDS011;51090;51.512;11.332;2023-05-10T04:39:42;7.82;;;3.47;;
64674;SDS011;51090;51.512;11.332;2023-05-10T04:42:07;7.93;;;3.35;;
64674;SDS011;51090;51.512;11.332;2023-05-10T04:44:33;5.90;;;3.30;;
64674;SDS011;51090;51.512;11.332;2023-05-10T04:46:59;5.35;;;2.78;;
64674;SDS011;51090;51.512;11.332;2023-05-10T04:49:27;4.85;;;2.63;;
64674;SDS011;51090;51.512;11.332;2023-05-10T04:51:53;3.72;;;2.78;;
64674;SDS011;51090;51.512;11.332;2023-05-10T04:54:18;7.65;;;3.03;;
64674;SDS011;51090;51.512;11.332;2023-05-10T04:56:44;6.97;;;3.58;;
64674;SDS011;51090;51.512;11.332;2023-05-10T04:59:10;5.07;;;2.88;;
64674;SDS011;51090;51.512;11.332;2023-05-10T05:01:36;10.32;;;2.92;;
64674;SDS011;51090;51.512;11.332;2023-05-10T05:04:01;9.38;;;3.28;;
64674;SDS011;51090;51.512;11.332;2023-05-10T05:06:27;10.77;;;2.95;;
64674;SDS011;51090;51.512;11.332;2023-05-10T05:08:53;7.72;;;3.33;;
64674;SDS011;51090;51.512;11.332;2023-05-10T05:11:19;6.68;;;3.05;;
64674;SDS011;51090;51.512;11.332;2023-05-10T05:13:45;10.27;;;3.13;;
64674;SDS011;51090;51.512;11.332;2023-05-10T05:16:11;6.68;;;3.55;;
64674;SDS011;51090;51.512;11.332;2023-05-10T05:18:37;5.65;;;3.30;;
64674;SDS011;51090;51.512;11.332;2023-05-10T05:21:03;8.15;;;3.80;;
64674;SDS011;51090;51.512;11.332;2023-05-10T05:23:37;6.22;;;3.28;;
64674;SDS011;51090;51.512;11.332;2023-05-10T05:26:03;7.20;;;3.58;;
64674;SDS011;51090;51.512;11.332;2023-05-10T05:28:29;11.57;;;4.28;;
64674;SDS011;51090;51.512;11.332;2023-05-10T05:30:57;6.32;;;3.42;;
64674;SDS011;51090;51.512;11.332;2023-05-10T05:33:23;7.00;;;3.63;;
64674;SDS011;51090;51.512;11.332;2023-05-10T05:35:49;5.35;;;2.90;;
64674;SDS011;51090;51.512;11.332;2023-05-10T05:38:15;11.23;;;3.30;;
64674;SDS011;51090;51.512;11.332;2023-05-10T05:40:42;5.78;;;3.38;;
64674;SDS011;51090;51.512;11.332;2023-05-10T05:43:08;4.20;;;2.85;;
64674;SDS011;51090;51.512;11.332;2023-05-10T05:45:34;7.25;;;3.40;;
64674;SDS011;51090;51.512;11.332;2023-05-10T05:47:59;6.80;;;3.20;;
64674;SDS011;51090;51.512;11.332;2023-05-10T05:50:25;7.38;;;3.40;;
64674;SDS011;51090;51.512;11.332;2023-05-10T05:52:51;5.45;;;3.03;;
64674;SDS011;51090;51.512;11.332;2023-05-10T05:55:16;5.50;;;3.20;;
64674;SDS011;51090;51.512;11.332;2023-05-10T05:57:42;8.88;;;3.80;;
64674;SDS011;51090;51.512;11.332;2023-05-10T06:00:08;5.00;;;3.33;;
64674;SDS011;51090;51.512;11.332;2023-05-10T06:02:34;7.88;;;3.67;;
64674;SDS011;51090;51.512;11.332;2023-05-10T06:05:00;6.65;;;3.83;;
64674;SDS011;51090;51.512;11.332;2023-05-10T06:07:25;5.80;;;3.47;;
64674;SDS011;51090;51.512;11.332;2023-05-10T06:09:51;5.72;;;3.00;;
64674;SDS011;51090;51.512;11.332;2023-05-10T06:12:17;6.65;;;3.10;;
64674;SDS011;51090;51.512;11.332;2023-05-10T06:14:43;8.30;;;3.67;;
64674;SDS011;51090;51.512;11.332;2023-05-10T06:17:08;5.35;;;2.70;;
64674;SDS011;51090;51.512;11.332;2023-05-10T06:19:34;4.95;;;3.40;;
64674;SDS011;51090;51.512;11.332;2023-05-10T06:22:00;7.18;;;3.20;;
64674;SDS011;51090;51.512;11.332;2023-05-10T06:24:26;8.18;;;3.30;;
64674;SDS011;51090;51.512;11.332;2023-05-10T06:26:52;5.40;;;3.28;;
64674;SDS011;51090;51.512;11.332;2023-05-10T06:29:18;5.00;;;3.03;;
64674;SDS011;51090;51.512;11.332;2023-05-10T06:31:43;5.90;;;2.97;;
64674;SDS011;51090;51.512;11.332;2023-05-10T06:34:09;5.28;;;2.83;;
64674;SDS011;51090;51.512;11.332;2023-05-10T06:36:36;5.65;;;3.28;;
64674;SDS011;51090;51.512;11.332;2023-05-10T06:39:02;6.13;;;2.83;;
64674;SDS011;51090;51.512;11.332;2023-05-10T06:41:28;5.22;;;2.90;;
64674;SDS011;51090;51.512;11.332;2023-05-10T06:43:53;7.18;;;3.33;;
64674;SDS011;51090;51.512;11.332;2023-05-10T06:46:19;6.60;;;2.90;;
64674;SDS011;51090;51.512;11.332;2023-05-10T06:48:45;5.10;;;2.92;;
64674;SDS011;51090;51.512;11.332;2023-05-10T06:51:10;3.95;;;2.40;;
64674;SDS011;51090;51.512;11.332;2023-05-10T06:53:36;5.13;;;2.95;;
64674;SDS011;51090;51.512;11.332;2023-05-10T06:56:02;5.68;;;2.83;;
64674;SDS011;51090;51.512;11.332;2023-05-10T06:58:28;5.05;;;3.38;;
64674;SDS011;51090;51.512;11.332;2023-05-10T07:00:53;5.93;;;3.00;;
64674;SDS011;51090;51.512;11.332;2023-05-10T07:03:19;6.63;;;3.05;;
64674;SDS011;51090;51.512;11.332;2023-05-10T07:05:45;8.20;;;3.30;;
64674;SDS011;51090;51.512;11.332;2023-05-10T07:08:10;8.95;;;3.40;;
64674;SDS011;51090;51.512;11.332;2023-05-10T07:10:36;6.03;;;3.33;;
64674;SDS011;51090;51.512;11.332;2023-05-10T07:13:02;5.47;;;3.00;;
64674;SDS011;51090;51.512;11.332;2023-05-10T07:15:27;6.65;;;3.42;;
64674;SDS011;51090;51.512;11.332;2023-05-10T07:17:53;4.45;;;2.85;;
64674;SDS011;51090;51.512;11.332;2023-05-10T07:20:19;6.18;;;3.25;;
64674;SDS011;51090;51.512;11.332;2023-05-10T07:22:45;5.75;;;3.22;;
64674;SDS011;51090;51.512;11.332;2023-05-10T07:25:11;5.10;;;3.10;;
64674;SDS011;51090;51.512;11.332;2023-05-10T07:27:36;4.28;;;2.90;;
64674;SDS011;51090;51.512;11.332;2023-05-10T07:30:02;6.85;;;3.40;;
64674;SDS011;51090;51.512;11.332;2023-05-10T07:32:28;7.45;;;3.47;;
64674;SDS011;51090;51.512;11.332;2023-05-10T07:34:54;5.28;;;3.38;;
64674;SDS011;51090;51.512;11.332;2023-05-10T07:37:20;6.50;;;4.00;;
64674;SDS011;51090;51.512;11.332;2023-05-10T07:39:45;6.53;;;3.75;;
64674;SDS011;51090;51.512;11.332;2023-05-10T07:42:11;5.72;;;3.20;;
64674;SDS011;51090;51.512;11.332;2023-05-10T07:44:37;6.03;;;3.70;;
64674;SDS011;51090;51.512;11.332;2023-05-10T07:47:02;6.68;;;3.50;;
64674;SDS011;51090;51.512;11.332;2023-05-10T07:49:28;6.93;;;3.40;;
64674;SDS011;51090;51.512;11.332;2023-05-10T07:51:53;7.22;;;3.22;;
64674;SDS011;51090;51.512;11.332;2023-05-10T07:54:19;4.85;;;2.85;;
64674;SDS011;51090;51.512;11.332;2023-05-10T07:56:45;5.57;;;3.55;;
64674;SDS011;51090;51.512;11.332;2023-05-10T07:59:15;6.53;;;3.60;;
64674;SDS011;51090;51.512;11.332;2023-05-10T08:01:42;5.40;;;3.28;;
64674;SDS011;51090;51.512;11.332;2023-05-10T08:04:08;6.18;;;3.92;;
64674;SDS011;51090;51.512;11.332;2023-05-10T08:06:34;7.80;;;4.45;;
64674;SDS011;51090;51.512;11.332;2023-05-10T08:08:59;4.97;;;3.60;;
64674;SDS011;51090;51.512;11.332;2023-05-10T08:11:25;4.97;;;3.75;;
64674;SDS011;51090;51.512;11.332;2023-05-10T08:13:52;5.35;;;2.75;;
64674;SDS011;51090;51.512;11.332;2023-05-10T08:16:18;5.32;;;3.78;;
64674;SDS011;51090;51.512;11.332;2023-05-10T08:18:45;4.63;;;3.22;;
64674;SDS011;51090;51.512;11.332;2023-05-10T08:21:11;5.00;;;2.95;;
64674;SDS011;51090;51.512;11.332;2023-05-10T08:23:38;6.28;;;2.88;;
64674;SDS011;51090;51.512;11.332;2023-05-10T08:26:04;4.63;;;2.80;;
64674;SDS011;51090;51.512;11.332;2023-05-10T08:28:30;6.72;;;3.63;;
64674;SDS011;51090;51.512;11.332;2023-05-10T08:30:56;6.05;;;4.22;;
64674;SDS011;51090;51.512;11.332;2023-05-10T08:33:22;6.80;;;3.75;;
64674;SDS011;51090;51.512;11.332;2023-05-10T08:35:47;6.93;;;4.22;;
64674;SDS011;51090;51.512;11.332;2023-05-10T08:38:13;5.07;;;3.35;;
64674;SDS011;51090;51.512;11.332;2023-05-10T08:40:40;5.47;;;3.05;;
64674;SDS011;51090;51.512;11.332;2023-05-10T08:43:08;5.22;;;3.25;;
64674;SDS011;51090;51.512;11.332;2023-05-10T08:45:37;5.93;;;3.05;;
64674;SDS011;51090;51.512;11.332;2023-05-10T08:48:05;7.80;;;3.88;;
64674;SDS011;51090;51.512;11.332;2023-05-10T08:50:33;4.32;;;2.75;;
64674;SDS011;51090;51.512;11.332;2023-05-10T08:53:03;6.15;;;2.83;;
64674;SDS011;51090;51.512;11.332;2023-05-10T08:55:37;4.68;;;2.50;;
64674;SDS011;51090;51.512;11.332;2023-05-10T08:58:05;4.68;;;2.60;;
64674;SDS011;51090;51.512;11.332;2023-05-10T09:00:32;3.78;;;2.53;;
64674;SDS011;51090;51.512;11.332;2023-05-10T09:02:58;5.22;;;2.88;;
64674;SDS011;51090;51.512;11.332;2023-05-10T09:05:25;4.47;;;2.80;;
64674;SDS011;51090;51.512;11.332;2023-05-10T09:07:50;3.42;;;2.35;;
64674;SDS011;51090;51.512;11.332;2023-05-10T09:10:16;4.10;;;2.80;;
64674;SDS011;51090;51.512;11.332;2023-05-10T09:12:43;3.22;;;2.08;;
64674;SDS011;51090;51.512;11.332;2023-05-10T09:15:10;4.53;;;2.67;;
64674;SDS011;51090;51.512;11.332;2023-05-10T09:17:37;4.57;;;2.92;;
64674;SDS011;51090;51.512;11.332;2023-05-10T09:20:05;3.80;;;2.40;;
64674;SDS011;51090;51.512;11.332;2023-05-10T09:22:32;3.80;;;2.42;;
64674;SDS011;51090;51.512;11.332;2023-05-10T09:27:39;4.18;;;2.20;;
64674;SDS011;51090;51.512;11.332;2023-05-10T09:30:06;3.45;;;2.05;;
64674;SDS011;51090;51.512;11.332;2023-05-10T09:32:38;3.08;;;1.85;;
64674;SDS011;51090;51.512;11.332;2023-05-10T09:35:15;3.22;;;2.10;;
64674;SDS011;51090;51.512;11.332;2023-05-10T09:37:44;3.55;;;2.30;;
64674;SDS011;51090;51.512;11.332;2023-05-10T09:40:18;3.38;;;2.05;;
64674;SDS011;51090;51.512;11.332;2023-05-10T09:45:31;3.20;;;2.08;;
64674;SDS011;51090;51.512;11.332;2023-05-10T09:47:59;4.38;;;2.10;;
64674;SDS011;51090;51.512;11.332;2023-05-10T09:50:26;3.38;;;2.17;;
64674;SDS011;51090;51.512;11.332;2023-05-10T09:52:54;3.13;;;2.05;;
64674;SDS011;51090;51.512;11.332;2023-05-10T09:55:26;3.75;;;2.00;;
64674;SDS011;51090;51.512;11.332;2023-05-10T09:58:09;3.28;;;1.92;;
64674;SDS011;51090;51.512;11.332;2023-05-10T10:00:36;3.13;;;2.13;;
64674;SDS011;51090;51.512;11.332;2023-05-10T10:03:11;5.07;;;2.42;;
64674;SDS011;51090;51.512;11.332;2023-05-10T10:05:42;4.28;;;2.20;;
64674;SDS011;51090;51.512;11.332;2023-05-10T10:08:09;4.03;;;1.90;;
64674;SDS011;51090;51.512;11.332;2023-05-10T10:10:36;2.85;;;2.20;;
64674;SDS011;51090;51.512;11.332;2023-05-10T10:13:03;3.25;;;2.05;;
64674;SDS011;51090;51.512;11.332;2023-05-10T10:15:29;3.25;;;1.80;;
64674;SDS011;51090;51.512;11.332;2023-05-10T10:17:57;3.38;;;2.28;;
64674;SDS011;51090;51.512;11.332;2023-05-10T10:20:23;5.32;;;3.15;;
64674;SDS011;51090;51.512;11.332;2023-05-10T10:22:50;4.00;;;2.40;;
64674;SDS011;51090;51.512;11.332;2023-05-10T10:25:17;3.70;;;2.08;;
64674;SDS011;51090;51.512;11.332;2023-05-10T10:36:22;2.30;;;1.70;;
64674;SDS011;51090;51.512;11.332;2023-05-10T10:41:27;2.85;;;1.67;;
64674;SDS011;51090;51.512;11.332;2023-05-10T10:49:48;1.73;;;1.08;;
64674;SDS011;51090;51.512;11.332;2023-05-10T10:52:35;3.65;;;1.00;;
64674;SDS011;51090;51.512;11.332;2023-05-10T10:57:43;1.52;;;1.00;;
64674;SDS011;51090;51.512;11.332;2023-05-10T11:00:21;3.50;;;1.20;;
64674;SDS011;51090;51.512;11.332;2023-05-10T11:03:05;2.42;;;1.38;;
64674;SDS011;51090;51.512;11.332;2023-05-10T11:05:53;2.25;;;1.17;;
64674;SDS011;51090;51.512;11.332;2023-05-10T11:08:31;2.88;;;1.08;;
64674;SDS011;51090;51.512;11.332;2023-05-10T11:13:44;2.05;;;1.00;;
64674;SDS011;51090;51.512;11.332;2023-05-10T11:16:16;3.42;;;1.30;;
64674;SDS011;51090;51.512;11.332;2023-05-10T11:21:34;1.80;;;1.13;;
64674;SDS011;51090;51.512;11.332;2023-05-10T11:24:36;2.03;;;1.17;;
64674;SDS011;51090;51.512;11.332;2023-05-10T11:27:02;2.90;;;1.10;;
64674;SDS011;51090;51.512;11.332;2023-05-10T11:29:28;1.98;;;1.00;;
64674;SDS011;51090;51.512;11.332;2023-05-10T11:31:53;2.17;;;1.30;;
64674;SDS011;51090;51.512;11.332;2023-05-10T11:34:24;1.58;;;0.90;;
64674;SDS011;51090;51.512;11.332;2023-05-10T11:37:00;1.65;;;0.90;;
64674;SDS011;51090;51.512;11.332;2023-05-10T11:39:29;1.45;;;0.80;;
64674;SDS011;51090;51.512;11.332;2023-05-10T11:41:56;1.67;;;0.70;;
64674;SDS011;51090;51.512;11.332;2023-05-10T11:44:23;2.72;;;0.80;;
64674;SDS011;51090;51.512;11.332;2023-05-10T11:46:54;3.08;;;0.85;;
64674;SDS011;51090;51.512;11.332;2023-05-10T11:49:27;2.00;;;0.77;;
64674;SDS011;51090;51.512;11.332;2023-05-10T11:51:53;3.05;;;1.20;;
64674;SDS011;51090;51.512;11.332;2023-05-10T11:54:28;1.33;;;0.95;;
64674;SDS011;51090;51.512;11.332;2023-05-10T11:56:53;1.48;;;1.10;;
64674;SDS011;51090;51.512;11.332;2023-05-10T11:59:19;2.80;;;1.08;;
64674;SDS011;51090;51.512;11.332;2023-05-10T12:01:45;1.95;;;1.30;;
64674;SDS011;51090;51.512;11.332;2023-05-10T12:04:11;2.25;;;1.25;;
64674;SDS011;51090;51.512;11.332;2023-05-10T12:06:37;2.22;;;1.30;;
64674;SDS011;51090;51.512;11.332;2023-05-10T12:09:06;1.80;;;1.30;;
64674;SDS011;51090;51.512;11.332;2023-05-10T12:11:35;2.35;;;1.42;;
64674;SDS011;51090;51.512;11.332;2023-05-10T12:14:05;1.60;;;1.13;;
64674;SDS011;51090;51.512;11.332;2023-05-10T12:16:30;1.63;;;1.20;;
64674;SDS011;51090;51.512;11.332;2023-05-10T12:18:57;1.08;;;0.82;;
64674;SDS011;51090;51.512;11.332;2023-05-10T12:21:25;1.33;;;0.90;;
64674;SDS011;51090;51.512;11.332;2023-05-10T12:23:56;1.65;;;0.90;;
64674;SDS011;51090;51.512;11.332;2023-05-10T12:26:27;1.87;;;1.00;;
64674;SDS011;51090;51.512;11.332;2023-05-10T12:28:54;2.88;;;1.00;;
64674;SDS011;51090;51.512;11.332;2023-05-10T12:34:31;1.27;;;0.80;;
64674;SDS011;51090;51.512;11.332;2023-05-10T12:36:58;1.13;;;0.80;;
64674;SDS011;51090;51.512;11.332;2023-05-10T12:39:25;3.22;;;0.90;;
64674;SDS011;51090;51.512;11.332;2023-05-10T12:41:51;1.83;;;1.38;;
64674;SDS011;51090;51.512;11.332;2023-05-10T12:44:17;3.95;;;1.20;;
64674;SDS011;51090;51.512;11.332;2023-05-10T12:46:43;3.03;;;1.00;;
64674;SDS011;51090;51.512;11.332;2023-05-10T12:49:09;1.42;;;0.90;;
64674;SDS011;51090;51.512;11.332;2023-05-10T12:51:35;1.30;;;1.08;;
64674;SDS011;51090;51.512;11.332;2023-05-10T12:54:02;1.60;;;1.08;;
64674;SDS011;51090;51.512;11.332;2023-05-10T12:56:27;2.88;;;1.15;;
64674;SDS011;51090;51.512;11.332;2023-05-10T12:58:53;1.13;;;0.93;;
64674;SDS011;51090;51.512;11.332;2023-05-10T13:01:19;1.50;;;1.10;;
64674;SDS011;51090;51.512;11.332;2023-05-10T13:03:44;1.52;;;1.10;;
64674;SDS011;51090;51.512;11.332;2023-05-10T13:06:10;1.75;;;1.00;;
64674;SDS011;51090;51.512;11.332;2023-05-10T13:08:38;3.00;;;1.15;;
64674;SDS011;51090;51.512;11.332;2023-05-10T13:11:04;2.65;;;1.27;;
64674;SDS011;51090;51.512;11.332;2023-05-10T13:13:30;2.47;;;1.50;;
64674;SDS011;51090;51.512;11.332;2023-05-10T13:15:56;1.48;;;1.02;;
64674;SDS011;51090;51.512;11.332;2023-05-10T13:18:22;2.10;;;1.20;;
64674;SDS011;51090;51.512;11.332;2023-05-10T13:20:47;2.20;;;1.10;;
64674;SDS011;51090;51.512;11.332;2023-05-10T13:23:14;2.38;;;1.35;;
64674;SDS011;51090;51.512;11.332;2023-05-10T13:25:40;2.63;;;1.20;;
64674;SDS011;51090;51.512;11.332;2023-05-10T13:28:05;1.92;;;1.27;;
64674;SDS011;51090;51.512;11.332;2023-05-10T13:30:31;1.80;;;1.15;;
64674;SDS011;51090;51.512;11.332;2023-05-10T13:32:57;2.10;;;1.30;;
64674;SDS011;51090;51.512;11.332;2023-05-10T13:35:22;4.03;;;1.30;;
64674;SDS011;51090;51.512;11.332;2023-05-10T13:37:48;2.10;;;1.40;;
64674;SDS011;51090;51.512;11.332;2023-05-10T13:40:14;2.00;;;1.45;;
64674;SDS011;51090;51.512;11.332;2023-05-10T13:42:40;1.63;;;1.13;;
64674;SDS011;51090;51.512;11.332;2023-05-10T13:45:07;2.97;;;1.45;;
64674;SDS011;51090;51.512;11.332;2023-05-10T13:47:33;2.28;;;1.33;;
64674;SDS011;51090;51.512;11.332;2023-05-10T13:49:58;4.90;;;1.35;;
64674;SDS011;51090;51.512;11.332;2023-05-10T13:52:24;2.50;;;1.20;;
64674;SDS011;51090;51.512;11.332;2023-05-10T13:54:51;2.10;;;1.17;;
64674;SDS011;51090;51.512;11.332;2023-05-10T13:57:19;2.97;;;1.48;;
64674;SDS011;51090;51.512;11.332;2023-05-10T13:59:45;2.25;;;1.20;;
64674;SDS011;51090;51.512;11.332;2023-05-10T14:02:11;2.80;;;1.20;;
64674;SDS011;51090;51.512;11.332;2023-05-10T14:04:38;2.92;;;1.27;;
64674;SDS011;51090;51.512;11.332;2023-05-10T14:07:03;2.17;;;1.13;;
64674;SDS011;51090;51.512;11.332;2023-05-10T14:09:30;2.97;;;1.30;;
64674;SDS011;51090;51.512;11.332;2023-05-10T14:11:56;2.55;;;1.27;;
64674;SDS011;51090;51.512;11.332;2023-05-10T14:14:22;1.60;;;1.00;;
64674;SDS011;51090;51.512;11.332;2023-05-10T14:16:48;2.20;;;1.02;;
64674;SDS011;51090;51.512;11.332;2023-05-10T14:19:13;2.00;;;1.15;;
64674;SDS011;51090;51.512;11.332;2023-05-10T14:21:39;2.35;;;0.98;;
64674;SDS011;51090;51.512;11.332;2023-05-10T14:24:05;2.22;;;1.35;;
64674;SDS011;51090;51.512;11.332;2023-05-10T14:26:32;1.92;;;1.30;;
64674;SDS011;51090;51.512;11.332;2023-05-10T14:28:59;1.48;;;0.90;;
64674;SDS011;51090;51.512;11.332;2023-05-10T14:31:25;3.13;;;1.17;;
64674;SDS011;51090;51.512;11.332;2023-05-10T14:33:50;1.98;;;1.30;;
64674;SDS011;51090;51.512;11.332;2023-05-10T14:36:17;1.63;;;1.17;;
64674;SDS011;51090;51.512;11.332;2023-05-10T14:38:42;2.95;;;1.13;;
64674;SDS011;51090;51.512;11.332;2023-05-10T14:41:08;2.67;;;1.00;;
64674;SDS011;51090;51.512;11.332;2023-05-10T14:43:40;2.25;;;1.23;;
64674;SDS011;51090;51.512;11.332;2023-05-10T14:46:06;1.92;;;1.20;;
64674;SDS011;51090;51.512;11.332;2023-05-10T14:48:31;2.10;;;1.40;;
64674;SDS011;51090;51.512;11.332;2023-05-10T14:50:57;2.25;;;1.30;;
64674;SDS011;51090;51.512;11.332;2023-05-10T14:53:23;1.92;;;1.20;;
64674;SDS011;51090;51.512;11.332;2023-05-10T14:55:48;2.80;;;1.20;;
64674;SDS011;51090;51.512;11.332;2023-05-10T14:58:14;2.38;;;1.40;;
64674;SDS011;51090;51.512;11.332;2023-05-10T15:00:40;12.15;;;1.58;;
64674;SDS011;51090;51.512;11.332;2023-05-10T15:03:06;4.28;;;1.65;;
64674;SDS011;51090;51.512;11.332;2023-05-10T15:05:31;2.05;;;1.63;;
64674;SDS011;51090;51.512;11.332;2023-05-10T15:07:57;2.45;;;1.50;;
64674;SDS011;51090;51.512;11.332;2023-05-10T15:10:23;2.40;;;1.40;;
64674;SDS011;51090;51.512;11.332;2023-05-10T15:12:49;2.72;;;1.63;;
64674;SDS011;51090;51.512;11.332;2023-05-10T15:15:15;2.83;;;1.70;;
64674;SDS011;51090;51.512;11.332;2023-05-10T15:17:41;3.00;;;1.65;;
64674;SDS011;51090;51.512;11.332;2023-05-10T15:20:06;2.35;;;1.65;;
64674;SDS011;51090;51.512;11.332;2023-05-10T15:22:33;2.85;;;1.80;;
64674;SDS011;51090;51.512;11.332;2023-05-10T15:24:58;2.03;;;1.40;;
64674;SDS011;51090;51.512;11.332;2023-05-10T15:27:24;1.75;;;1.25;;
64674;SDS011;51090;51.512;11.332;2023-05-10T15:29:51;2.42;;;1.20;;